Salisbury, Missouri
Current Conditions -  °F | °C
As of 3:55 PM on Thursday 23 Oct 2014 (Local Time) from KVER Reporting Station
Overcast Overcast  
Wind Chill: 68°   Ceiling: 2900
Heat Index: 68°   Visibility: 10mi
Dew Point: 55°   Wind: 5mph
Humidity: 63%   Direction: 230°SW
Pressure: 30.06"   Gusts: NA
Location:  39.42°N, 92.8°W
Report Text: KVER 232055Z AUTO 23004KT 10SM OVC029 20/13 A3006 RMK AO2 T02000128
Loading
Personal Weather Stations






























Interactive Weather Map
Tropical Storm Tracking
New forecast layout! Learn more

10-Day Weather Forecast

Advertisements
Track Severe Weather on mobile